LHBP/BUD METAR and TAF weather

Enter ICAO airport designator
Station Type Date Time Source
LHBP METAR 2024/02/26 17:00 UTC NOAA

LHBP 261700Z VRB01KT 9999 FEW040 11/09 Q1008 NOSIG


Station Type Date Time Source
LHBP Decoded METAR 2024/02/26 17:00 UTC NOAA

Budapest / Ferihegy, Hungary (LHBP) 47-26N 019-16E 185M
Feb 26, 2024 - 12:00 PM EST / 2024.02.26 1700 UTC
Wind: Variable at 1 MPH (1 KT):0
Visibility: greater than 7 mile(s):0
Sky conditions: mostly clear
Temperature: 51 F (11 C)
Dew Point: 48 F (9 C)
Relative Humidity: 87%
Pressure (altimeter): 29.77 in. Hg (1008 hPa)
ob: LHBP 261700Z VRB01KT 9999 FEW040 11/09 Q1008 NOSIG
cycle: 17

Station Type Date Time Source
LHBP TAF 2024/02/26 12:28 UTC NOAA